METAR Data
IDs: Format: Raw Decoded Include TAF

Data at: 0257 UTC 19 Oct 2021

KSTP 190253Z AUTO 16008KT 10SM CLR 16/06 A2993 RMK AO2 SLP135 T01560061 52008